Time;durP1;ratioP1;P1;durP2;ratioP2;P2;SDS_P1;SDS_P2;PMS_P1;PMS_P2;Temp;Humidity;BMP_temperature;BMP_pressure;BME280_temperature;BME280_humidity;BME280_pressure;Samples;Min_cycle;Max_cycle;Signal;HPM_P1;HPM_P2
2023/05/15 00:01:25;;;;;;;;;;;;;;;11.59;100.00;100788.00;5014622;28;19924;-93
2023/05/15 00:03:50;;;;;;;;;;;;;;;11.56;100.00;100784.69;5032145;28;20402;-94
2023/05/15 00:06:16;;;;;;;;;;;;;;;11.57;100.00;100791.50;5014326;28;19917;-93
2023/05/15 00:08:41;;;;;;;;;;;;;;;11.56;100.00;100791.59;5032097;28;20375;-93
2023/05/15 00:11:06;;;;;;;;;;;;;;;11.81;100.00;100790.22;5032322;28;19917;-92
2023/05/15 00:13:32;;;;;;;;;;;;;;;11.75;100.00;100797.41;5014308;28;20366;-92
2023/05/15 00:15:57;;;;;;;;;;;;;;;11.68;100.00;100793.50;5014481;28;20344;-93
2023/05/15 00:18:22;;;;;;;;;;;;;;;11.66;100.00;100794.50;5047364;27;19917;-92
2023/05/15 00:20:47;;;;;;;;;;;;;;;11.50;100.00;100804.84;5014201;28;20004;-93
2023/05/15 00:23:13;;;;;;;;;;;;;;;11.48;100.00;100801.53;5014043;28;20294;-94
2023/05/15 00:25:38;;;;;;;;;;;;;;;11.38;100.00;100808.94;5046605;28;20007;-92
2023/05/15 00:28:03;;;;;;;;;;;;;;;11.29;100.00;100799.09;5013471;28;19921;-93
2023/05/15 00:30:28;;;;;;;;;;;;;;;11.28;100.00;100805.22;5031419;28;20022;-93
2023/05/15 00:32:54;;;;;;;;;;;;;;;11.26;100.00;100804.44;5031276;28;20019;-93
2023/05/15 00:35:19;;;;;;;;;;;;;;;11.14;100.00;100803.34;5046916;27;19966;-93
2023/05/15 00:37:44;;;;;;;;;;;;;;;11.08;100.00;100807.13;5013698;28;19957;-93
2023/05/15 00:40:11;;;;;;;;;;;;;;;11.08;100.00;100798.53;5013859;28;19921;-93
2023/05/15 00:42:37;;;;;;;;;;;;;;;11.09;100.00;100803.59;5031044;28;20000;-93
2023/05/15 00:45:04;;;;;;;;;;;;;;;11.00;100.00;100801.53;5013602;28;20008;-93
2023/05/15 00:47:31;;;;;;;;;;;;;;;11.03;100.00;100801.38;5013432;28;19924;-93
2023/05/15 00:49:57;;;;;;;;;;;;;;;10.99;100.00;100805.00;5046338;27;19917;-93
2023/05/15 00:52:22;;;;;;;;;;;;;;;10.82;100.00;100810.25;5013424;28;19917;-93
2023/05/15 00:54:48;;;;;;;;;;;;;;;10.73;100.00;100811.56;5046227;28;19921;-92
2023/05/15 00:57:14;;;;;;;;;;;;;;;10.75;100.00;100801.97;5013106;28;19933;-93
2023/05/15 00:59:40;;;;;;;;;;;;;;;10.65;100.00;100801.63;5013385;28;20386;-93
2023/05/15 01:02:05;;;;;;;;;;;;;;;10.70;100.00;100810.00;5013067;28;19917;-93
2023/05/15 01:04:30;;;;;;;;;;;;;;;10.73;100.00;100798.66;5012984;28;19924;-91
2023/05/15 01:06:55;;;;;;;;;;;;;;;10.66;100.00;100805.88;5046208;27;19921;-92
2023/05/15 01:09:24;;;;;;;;;;;;;;;10.63;100.00;100807.78;5012904;28;19917;-94
2023/05/15 01:11:52;;;;;;;;;;;;;;;10.54;100.00;100809.09;5030508;28;19917;-93
2023/05/15 01:14:17;;;;;;;;;;;;;;;10.63;100.00;100811.22;5013225;28;19923;-92
2023/05/15 01:16:42;;;;;;;;;;;;;;;10.59;100.00;100804.53;5030705;28;19917;-93
2023/05/15 01:19:07;;;;;;;;;;;;;;;10.52;100.00;100808.34;5030896;28;19962;-94
2023/05/15 01:21:39;;;;;;;;;;;;;;;10.60;100.00;100810.53;5045950;28;20382;-93
2023/05/15 01:24:20;;;;;;;;;;;;;;;10.56;100.00;100816.75;5045690;27;19917;-93
2023/05/15 01:27:03;;;;;;;;;;;;;;;10.52;100.00;100815.25;5045769;27;20008;-92
2023/05/15 01:29:28;;;;;;;;;;;;;;;10.38;100.00;100818.53;5030257;28;19924;-93
2023/05/15 01:31:57;;;;;;;;;;;;;;;10.32;100.00;100821.44;5045761;28;19921;-94
2023/05/15 01:34:26;;;;;;;;;;;;;;;10.28;100.00;100824.16;5012337;28;20001;-93
2023/05/15 01:36:54;;;;;;;;;;;;;;;10.31;100.00;100827.50;5012819;28;19918;-94
2023/05/15 01:39:22;;;;;;;;;;;;;;;10.32;100.00;100829.19;5045490;28;20290;-93
2023/05/15 01:41:59;;;;;;;;;;;;;;;10.22;100.00;100837.34;5012769;28;19939;-94
2023/05/15 01:44:30;;;;;;;;;;;;;;;10.18;100.00;100830.66;5012394;28;19939;-92
2023/05/15 01:46:57;;;;;;;;;;;;;;;10.20;100.00;100836.56;5012527;28;20362;-93
2023/05/15 01:49:25;;;;;;;;;;;;;;;10.11;100.00;100834.44;5012345;28;19921;-93
2023/05/15 01:51:54;;;;;;;;;;;;;;;10.14;100.00;100831.69;5012485;28;19960;-92
2023/05/15 01:54:21;;;;;;;;;;;;;;;10.17;100.00;100829.00;5012516;28;19977;-94
2023/05/15 01:56:47;;;;;;;;;;;;;;;10.07;100.00;100838.06;5012718;28;19917;-93
2023/05/15 01:59:13;;;;;;;;;;;;;;;10.09;100.00;100841.41;5012181;28;20024;-91
2023/05/15 02:01:40;;;;;;;;;;;;;;;10.01;100.00;100846.94;5012350;28;19960;-93
2023/05/15 02:04:06;;;;;;;;;;;;;;;9.96;100.00;100837.78;5012256;28;20369;-93
2023/05/15 02:06:32;;;;;;;;;;;;;;;10.12;100.00;100843.00;5012448;28;19993;-93
2023/05/15 02:08:57;;;;;;;;;;;;;;;9.93;100.00;100843.09;5012504;28;20015;-92
2023/05/15 02:11:22;;;;;;;;;;;;;;;9.85;100.00;100852.03;5029978;28;19968;-96
2023/05/15 02:13:48;;;;;;;;;;;;;;;9.81;100.00;100850.50;5012503;28;20362;-92
2023/05/15 02:16:13;;;;;;;;;;;;;;;9.76;100.00;100846.47;5012248;28;20004;-92
2023/05/15 02:18:40;;;;;;;;;;;;;;;9.69;100.00;100850.25;5029637;28;20477;-93
2023/05/15 02:21:05;;;;;;;;;;;;;;;9.60;100.00;100847.16;5029988;28;19917;-93
2023/05/15 02:23:30;;;;;;;;;;;;;;;9.70;100.00;100863.03;5012324;28;19924;-92
2023/05/15 02:25:55;;;;;;;;;;;;;;;9.76;100.00;100862.75;5029538;28;20015;-93
2023/05/15 02:28:29;;;;;;;;;;;;;;;9.74;100.00;100858.59;5045254;27;19917;-92
2023/05/15 02:30:57;;;;;;;;;;;;;;;9.52;100.00;100863.91;5029573;28;20054;-93
2023/05/15 02:33:23;;;;;;;;;;;;;;;9.36;100.00;100869.78;5012117;28;19917;-93
2023/05/15 02:35:57;;;;;;;;;;;;;;;9.33;100.00;100869.06;5045408;28;20367;-93
2023/05/15 02:38:27;;;;;;;;;;;;;;;9.27;100.00;100871.94;5045132;28;20011;-92
2023/05/15 02:40:54;;;;;;;;;;;;;;;9.33;100.00;100864.75;5011811;28;19959;-92
2023/05/15 02:43:19;;;;;;;;;;;;;;;9.32;100.00;100872.56;5012059;28;19921;-92
2023/05/15 02:45:46;;;;;;;;;;;;;;;9.10;100.00;100880.41;5011709;28;20008;-91
2023/05/15 02:48:11;;;;;;;;;;;;;;;9.12;100.00;100876.00;5014270;28;20294;-91
2023/05/15 02:50:37;;;;;;;;;;;;;;;9.11;100.00;100892.38;5014893;28;19917;-91
2023/05/15 02:53:06;;;;;;;;;;;;;;;8.95;100.00;100881.91;5014992;28;19917;-91
2023/05/15 02:55:32;;;;;;;;;;;;;;;8.91;100.00;100882.94;5014985;28;20375;-91
2023/05/15 02:57:57;;;;;;;;;;;;;;;8.76;100.00;100894.75;5014828;28;19917;-91
2023/05/15 03:00:22;;;;;;;;;;;;;;;8.78;100.00;100892.94;5014880;28;19949;-92
2023/05/15 03:02:48;;;;;;;;;;;;;;;8.71;100.00;100892.34;5032735;28;19921;-92
2023/05/15 03:05:13;;;;;;;;;;;;;;;8.75;100.00;100888.75;5032517;28;19921;-92
2023/05/15 03:07:40;;;;;;;;;;;;;;;8.69;100.00;100890.75;5048132;28;20530;-93
2023/05/15 03:10:05;;;;;;;;;;;;;;;8.68;100.00;100886.50;5014994;28;19924;-92
2023/05/15 03:12:31;;;;;;;;;;;;;;;8.72;100.00;100893.19;5032392;28;19917;-92
2023/05/15 03:14:56;;;;;;;;;;;;;;;8.54;100.00;100890.50;5032489;28;20390;-92
2023/05/15 03:17:21;;;;;;;;;;;;;;;8.49;100.00;100895.00;5032442;28;20275;-93
2023/05/15 03:19:46;;;;;;;;;;;;;;;8.59;100.00;100894.63;5032448;28;19961;-92
2023/05/15 03:22:12;;;;;;;;;;;;;;;8.36;100.00;100896.34;5014880;28;20011;-92
2023/05/15 03:24:37;;;;;;;;;;;;;;;8.29;100.00;100900.06;5014534;28;19925;-92
2023/05/15 03:27:03;;;;;;;;;;;;;;;8.29;100.00;100900.06;5014378;28;19966;-91
2023/05/15 03:29:28;;;;;;;;;;;;;;;8.26;100.00;100905.34;5014587;28;19928;-92
2023/05/15 03:31:54;;;;;;;;;;;;;;;8.12;100.00;100904.16;5032085;28;20001;-91
2023/05/15 03:34:19;;;;;;;;;;;;;;;8.06;100.00;100899.25;5032241;28;20335;-92
2023/05/15 03:36:44;;;;;;;;;;;;;;;8.13;100.00;100910.16;5032168;28;19921;-91
2023/05/15 03:39:09;;;;;;;;;;;;;;;8.07;100.00;100907.81;5014231;28;20386;-94
2023/05/15 03:41:35;;;;;;;;;;;;;;;8.02;100.00;100909.72;5031864;28;20375;-94
2023/05/15 03:44:00;;;;;;;;;;;;;;;7.90;100.00;100909.31;5031732;28;19917;-91
2023/05/15 03:46:25;;;;;;;;;;;;;;;7.85;100.00;100916.38;5047102;27;19918;-91
2023/05/15 03:48:50;;;;;;;;;;;;;;;7.86;100.00;100912.06;5014384;28;19951;-94
2023/05/15 03:51:16;;;;;;;;;;;;;;;7.81;100.00;100919.13;5014221;28;19916;-92
2023/05/15 03:53:41;;;;;;;;;;;;;;;7.90;100.00;100919.59;5031780;28;19918;-90
2023/05/15 03:56:06;;;;;;;;;;;;;;;7.89;100.00;100919.66;5031737;28;20003;-93
2023/05/15 03:58:31;;;;;;;;;;;;;;;7.96;100.00;100921.09;5031008;28;20394;-91
2023/05/15 04:00:57;;;;;;;;;;;;;;;7.93;100.00;100918.63;5046957;27;20034;-92
2023/05/15 04:03:22;;;;;;;;;;;;;;;7.84;100.00;100919.81;5014113;28;19947;-91
2023/05/15 04:05:48;;;;;;;;;;;;;;;7.93;100.00;100919.47;5013887;28;19966;-91
2023/05/15 04:08:14;;;;;;;;;;;;;;;7.91;100.00;100923.00;5013750;28;19924;-92
2023/05/15 04:10:39;;;;;;;;;;;;;;;7.89;100.00;100917.06;5014110;28;19917;-93
2023/05/15 04:13:04;;;;;;;;;;;;;;;7.87;100.00;100929.97;5013867;28;19917;-92
2023/05/15 04:15:29;;;;;;;;;;;;;;;7.89;100.00;100930.75;5013661;28;20024;-93
2023/05/15 04:17:55;;;;;;;;;;;;;;;7.89;100.00;100930.75;5046529;27;19917;-91
2023/05/15 04:20:21;;;;;;;;;;;;;;;7.91;100.00;100933.28;5013913;28;19921;-93
2023/05/15 04:22:47;;;;;;;;;;;;;;;7.89;100.00;100946.19;5013908;28;19917;-92
2023/05/15 04:25:13;;;;;;;;;;;;;;;8.05;100.00;100936.16;5046889;28;19928;-93
2023/05/15 04:27:39;;;;;;;;;;;;;;;8.03;100.00;100935.38;5031382;28;20491;-93
2023/05/15 04:30:04;;;;;;;;;;;;;;;8.04;100.00;100941.34;5013533;28;19925;-94
2023/05/15 04:32:32;;;;;;;;;;;;;;;8.05;100.00;100938.72;5013795;28;19917;-94
2023/05/15 04:34:57;;;;;;;;;;;;;;;8.12;100.00;100940.16;5013900;28;19941;-92
2023/05/15 04:37:23;;;;;;;;;;;;;;;8.11;100.00;100947.94;5031559;28;20398;-92
2023/05/15 04:39:48;;;;;;;;;;;;;;;8.18;97.72;100938.25;5046506;28;19932;-92
2023/05/15 04:42:13;;;;;;;;;;;;;;;8.19;100.00;100939.91;5030971;28;20389;-92
2023/05/15 04:44:39;;;;;;;;;;;;;;;8.08;99.66;100943.75;5031137;28;19917;-92
2023/05/15 04:47:04;;;;;;;;;;;;;;;8.16;99.23;100951.16;5013407;28;19917;-93
2023/05/15 04:49:29;;;;;;;;;;;;;;;8.17;98.65;100952.84;5013461;28;19918;-92
2023/05/15 04:51:54;;;;;;;;;;;;;;;8.19;97.98;100956.16;5014402;28;20378;-94
2023/05/15 04:54:20;;;;;;;;;;;;;;;8.19;97.37;100955.34;5026202;28;19925;-91
2023/05/15 04:56:45;;;;;;;;;;;;;;;8.18;98.59;100963.97;5026321;28;19944;-92
2023/05/15 04:59:12;;;;;;;;;;;;;;;8.14;100.00;100964.09;5021798;28;19925;-92
2023/05/15 05:01:37;;;;;;;;;;;;;;;8.13;99.04;100962.41;5017146;28;20015;-92
2023/05/15 05:04:02;;;;;;;;;;;;;;;8.22;100.00;100973.22;5018321;28;20036;-90
2023/05/15 05:06:27;;;;;;;;;;;;;;;8.24;98.90;100979.13;5045705;27;19951;-94
2023/05/15 05:08:53;;;;;;;;;;;;;;;8.26;97.69;100972.19;5020792;28;19921;-94
2023/05/15 05:11:18;;;;;;;;;;;;;;;8.22;95.12;100975.78;5026892;28;20421;-94
2023/05/15 05:13:43;;;;;;;;;;;;;;;8.24;94.80;100985.13;5024946;28;19920;-93
2023/05/15 05:16:08;;;;;;;;;;;;;;;8.34;92.63;100986.44;5024873;28;19928;-90
2023/05/15 05:18:34;;;;;;;;;;;;;;;8.33;93.72;100986.50;5031728;28;19913;-91
2023/05/15 05:21:00;;;;;;;;;;;;;;;8.30;94.49;100989.19;5050470;28;19917;-93
2023/05/15 05:23:25;;;;;;;;;;;;;;;8.47;90.78;100993.72;5032058;28;19952;-91
2023/05/15 05:25:50;;;;;;;;;;;;;;;8.34;91.05;101001.06;5031885;28;19959;-90
2023/05/15 05:28:15;;;;;;;;;;;;;;;8.46;91.10;100999.72;5050129;28;19969;-90
2023/05/15 05:30:43;;;;;;;;;;;;;;;8.41;91.60;100997.34;5050207;28;20492;-91
2023/05/15 05:33:09;;;;;;;;;;;;;;;8.36;93.38;100999.22;5050430;28;19917;-91
2023/05/15 05:35:34;;;;;;;;;;;;;;;8.28;94.22;101001.28;5049980;28;19924;-90
2023/05/15 05:38:00;;;;;;;;;;;;;;;8.48;93.16;101003.91;5049883;28;19986;-91
2023/05/15 05:40:25;;;;;;;;;;;;;;;8.47;92.38;101007.41;5049643;28;19917;-92
2023/05/15 05:42:51;;;;;;;;;;;;;;;8.45;90.51;101014.34;5049947;28;20005;-91
2023/05/15 05:45:16;;;;;;;;;;;;;;;8.49;88.63;101013.34;5049882;28;19969;-91
2023/05/15 05:47:41;;;;;;;;;;;;;;;8.43;89.40;101023.84;5049801;28;19917;-92
2023/05/15 05:50:07;;;;;;;;;;;;;;;8.54;90.89;101019.13;5049560;28;19912;-92
2023/05/15 05:52:32;;;;;;;;;;;;;;;8.69;90.28;101025.41;5049872;28;20014;-91
2023/05/15 05:54:57;;;;;;;;;;;;;;;8.67;88.28;101021.22;5049821;28;19917;-91
2023/05/15 05:57:22;;;;;;;;;;;;;;;8.57;88.43;101020.75;5049791;28;20330;-91
2023/05/15 05:59:48;;;;;;;;;;;;;;;8.57;87.27;101028.47;5049507;28;19921;-92
2023/05/15 06:02:14;;;;;;;;;;;;;;;8.61;88.13;101034.31;5049459;28;20384;-91
2023/05/15 06:04:39;;;;;;;;;;;;;;;8.47;87.83;101033.13;5049901;28;19923;-91
2023/05/15 06:07:05;;;;;;;;;;;;;;;8.62;88.00;101039.41;5049363;28;20366;-91
2023/05/15 06:09:30;;;;;;;;;;;;;;;8.49;86.85;101044.19;5049362;28;19959;-92
2023/05/15 06:11:56;;;;;;;;;;;;;;;8.68;86.70;101043.47;5049273;28;20289;-92
2023/05/15 06:14:22;;;;;;;;;;;;;;;8.79;87.61;101051.59;5049232;28;20399;-92
2023/05/15 06:16:47;;;;;;;;;;;;;;;8.81;85.73;101047.22;5031633;28;19917;-91
2023/05/15 06:19:12;;;;;;;;;;;;;;;8.90;85.04;101046.88;5049200;28;19924;-91
2023/05/15 06:21:37;;;;;;;;;;;;;;;9.03;84.51;101059.25;5049106;28;20012;-91
2023/05/15 06:24:03;;;;;;;;;;;;;;;9.43;83.06;101056.66;5049188;28;20397;-91
2023/05/15 06:26:29;;;;;;;;;;;;;;;10.24;77.87;101059.97;5049155;28;20281;-90
2023/05/15 06:28:54;;;;;;;;;;;;;;;10.23;77.38;101052.28;5048992;28;20027;-91
2023/05/15 06:31:20;;;;;;;;;;;;;;;11.32;72.48;101059.97;5049106;28;19917;-91
2023/05/15 06:33:45;;;;;;;;;;;;;;;12.36;66.15;101064.84;5049083;28;20397;-91
2023/05/15 06:36:10;;;;;;;;;;;;;;;12.66;64.45;101061.47;5048970;28;20332;-91
2023/05/15 06:38:36;;;;;;;;;;;;;;;13.24;63.03;101063.31;5049075;28;20011;-91
2023/05/15 06:41:01;;;;;;;;;;;;;;;12.89;61.55;101067.09;5031118;28;19921;-92
2023/05/15 06:43:26;;;;;;;;;;;;;;;13.42;59.90;101065.78;5049022;28;19927;-91
2023/05/15 06:45:51;;;;;;;;;;;;;;;13.48;60.57;101068.00;5049035;28;20308;-91
2023/05/15 06:48:17;;;;;;;;;;;;;;;13.99;60.38;101065.75;5048822;28;19956;-91
2023/05/15 06:50:42;;;;;;;;;;;;;;;14.78;56.08;101064.28;5049004;28;19924;-92
2023/05/15 06:53:07;;;;;;;;;;;;;;;14.93;55.45;101058.09;5031133;28;19921;-92
2023/05/15 06:55:33;;;;;;;;;;;;;;;15.33;54.71;101071.00;5048930;28;19973;-91
2023/05/15 06:57:58;;;;;;;;;;;;;;;15.13;53.22;101068.94;5030849;28;19917;-92
2023/05/15 07:00:24;;;;;;;;;;;;;;;15.76;50.68;101072.50;5048776;28;20004;-92
2023/05/15 07:02:49;;;;;;;;;;;;;;;15.67;51.30;101068.72;5030847;28;19962;-92
2023/05/15 07:05:14;;;;;;;;;;;;;;;15.87;51.95;101079.56;5030934;28;20366;-91
2023/05/15 07:07:40;;;;;;;;;;;;;;;15.53;52.08;101074.03;5030863;28;19917;-92
2023/05/15 07:10:05;;;;;;;;;;;;;;;15.47;51.80;101077.06;5030785;28;19917;-93
2023/05/15 07:12:31;;;;;;;;;;;;;;;16.29;51.35;101077.47;5030718;28;20237;-91
2023/05/15 07:14:57;;;;;;;;;;;;;;;16.05;51.22;101086.09;5030754;28;19962;-92
2023/05/15 07:17:22;;;;;;;;;;;;;;;15.98;49.96;101077.06;5030757;28;19917;-92
2023/05/15 07:19:47;;;;;;;;;;;;;;;16.02;50.73;101075.88;5024622;28;19925;-91
2023/05/15 07:22:12;;;;;;;;;;;;;;;16.38;50.15;101076.81;5028365;28;19917;-92
2023/05/15 07:24:38;;;;;;;;;;;;;;;16.66;50.42;101084.31;5011449;28;19921;-93
2023/05/15 07:27:04;;;;;;;;;;;;;;;16.59;48.96;101083.09;5011115;28;20366;-92
2023/05/15 07:29:29;;;;;;;;;;;;;;;16.81;48.99;101081.56;5041738;28;19921;-95
2023/05/15 07:31:55;;;;;;;;;;;;;;;17.03;48.99;101088.63;5028083;28;20012;-94
2023/05/15 07:34:20;;;;;;;;;;;;;;;17.61;46.67;101086.03;5030751;28;19973;-96
2023/05/15 07:36:45;;;;;;;;;;;;;;;16.79;48.57;101089.50;5036530;28;20023;-96
2023/05/15 07:39:11;;;;;;;;;;;;;;;16.64;50.43;101083.59;5036034;28;20394;-94
2023/05/15 07:41:36;;;;;;;;;;;;;;;16.78;47.77;101084.38;5020581;28;20306;-96
2023/05/15 07:44:01;;;;;;;;;;;;;;;16.46;49.46;101090.16;5046370;28;19922;-95
2023/05/15 07:46:26;;;;;;;;;;;;;;;16.45;49.86;101094.50;5046832;28;20394;-96
2023/05/15 07:48:52;;;;;;;;;;;;;;;15.79;49.87;101091.34;5047579;28;19921;-95
2023/05/15 07:51:17;;;;;;;;;;;;;;;15.90;50.05;101092.34;5058707;27;19921;-95
2023/05/15 07:53:42;;;;;;;;;;;;;;;16.74;48.02;101085.53;5050115;28;19921;-94
2023/05/15 07:56:07;;;;;;;;;;;;;;;17.02;48.47;101100.00;5045054;28;19929;-95
2023/05/15 07:58:37;;;;;;;;;;;;;;;17.22;47.13;101099.38;5028500;28;20370;-96
2023/05/15 08:01:02;;;;;;;;;;;;;;;17.27;46.87;101104.25;5038533;28;19927;-96
2023/05/15 08:03:27;;;;;;;;;;;;;;;16.88;47.57;101106.25;5024315;28;20016;-96
2023/05/15 08:05:53;;;;;;;;;;;;;;;16.74;49.46;101107.22;5032670;28;19921;-96
2023/05/15 08:08:18;;;;;;;;;;;;;;;17.27;47.43;101106.84;5026563;28;19989;-95
2023/05/15 08:10:43;;;;;;;;;;;;;;;16.95;46.57;101102.25;5021187;28;19928;-94
2023/05/15 08:13:09;;;;;;;;;;;;;;;17.27;45.80;101110.28;5024846;28;20015;-95
2023/05/15 08:15:34;;;;;;;;;;;;;;;17.55;46.18;101116.84;5035028;28;19920;-96
2023/05/15 08:17:59;;;;;;;;;;;;;;;17.50;45.99;101108.53;5022011;28;20297;-96
2023/05/15 08:20:25;;;;;;;;;;;;;;;17.36;45.91;101102.69;5031675;28;20005;-96
2023/05/15 08:22:50;;;;;;;;;;;;;;;17.86;45.88;101111.91;5034472;28;19970;-96
2023/05/15 08:25:15;;;;;;;;;;;;;;;17.40;45.03;101104.97;5099581;28;20367;-95
2023/05/15 08:27:40;;;;;;;;;;;;;;;17.47;46.72;101116.59;5099852;28;20013;-95
2023/05/15 08:30:06;;;;;;;;;;;;;;;17.45;46.93;101112.44;5100156;28;19955;-96
2023/05/15 08:32:31;;;;;;;;;;;;;;;17.96;43.37;101107.63;5091813;28;19951;-94
2023/05/15 08:34:57;;;;;;;;;;;;;;;18.44;43.38;101110.91;5021479;28;19929;-96
2023/05/15 08:37:22;;;;;;;;;;;;;;;18.12;44.47;101109.91;5035479;28;19970;-96
2023/05/15 08:39:47;;;;;;;;;;;;;;;18.95;44.35;101112.91;5022638;28;19954;-96
2023/05/15 08:42:12;;;;;;;;;;;;;;;19.27;43.20;101112.03;5027698;28;19920;-96
2023/05/15 08:44:39;;;;;;;;;;;;;;;19.38;43.16;101119.78;5030574;28;19921;-96
2023/05/15 08:47:05;;;;;;;;;;;;;;;19.63;41.93;101113.31;5033031;28;19905;-96
2023/05/15 08:49:54;;;;;;;;;;;;;;;19.41;42.89;101111.69;5028061;28;19944;-96
2023/05/15 08:52:20;;;;;;;;;;;;;;;19.66;40.16;101110.47;5045427;28;19924;-96
2023/05/15 08:54:46;;;;;;;;;;;;;;;19.12;40.67;101112.34;5028974;28;19921;-96
2023/05/15 08:57:13;;;;;;;;;;;;;;;18.49;41.27;101127.06;5020669;28;19925;-96
2023/05/15 08:59:38;;;;;;;;;;;;;;;19.19;41.95;101113.50;5024535;28;19924;-95
2023/05/15 09:02:07;;;;;;;;;;;;;;;19.32;41.11;101112.47;5057063;28;19962;-95
2023/05/15 09:04:32;;;;;;;;;;;;;;;19.69;40.72;101114.63;5035080;28;19921;-95
2023/05/15 09:07:02;;;;;;;;;;;;;;;20.20;39.08;101109.28;5031288;28;19929;-96
2023/05/15 09:09:31;;;;;;;;;;;;;;;20.49;38.79;101116.41;5032945;28;19978;-96
2023/05/15 09:12:01;;;;;;;;;;;;;;;20.22;40.10;101109.16;5032694;28;19933;-96
2023/05/15 09:14:27;;;;;;;;;;;;;;;19.60;40.76;101116.19;5033404;28;19921;-96
2023/05/15 09:16:52;;;;;;;;;;;;;;;19.78;41.23;101119.91;5044705;28;19959;-96
2023/05/15 09:19:24;;;;;;;;;;;;;;;20.85;39.24;101114.94;5039163;28;19927;-96
2023/05/15 09:21:50;;;;;;;;;;;;;;;21.31;38.61;101118.63;5036559;28;19952;-96
2023/05/15 09:24:21;;;;;;;;;;;;;;;20.91;37.95;101116.97;5040114;28;19958;-96
2023/05/15 09:27:00;;;;;;;;;;;;;;;19.30;39.73;101127.47;5025111;28;19921;-96
2023/05/15 09:29:26;;;;;;;;;;;;;;;19.41;40.33;101128.25;5035953;28;19921;-96
2023/05/15 09:31:53;;;;;;;;;;;;;;;20.11;39.38;101123.19;5033543;28;19901;-96
2023/05/15 09:34:31;;;;;;;;;;;;;;;21.13;39.27;101126.38;5038090;28;20271;-96
2023/05/15 09:36:57;;;;;;;;;;;;;;;20.22;39.04;101124.91;5023888;28;20433;-96
2023/05/15 09:39:26;;;;;;;;;;;;;;;19.74;38.73;101128.16;5029503;28;19960;-96
2023/05/15 09:41:52;;;;;;;;;;;;;;;19.21;39.99;101126.44;5025720;28;19917;-96
2023/05/15 09:44:26;;;;;;;;;;;;;;;20.10;38.60;101126.78;5032958;28;19921;-96
2023/05/15 09:46:53;;;;;;;;;;;;;;;19.78;39.10;101126.94;5051648;28;19908;-96
2023/05/15 09:49:20;;;;;;;;;;;;;;;19.36;39.01;101125.19;5030963;28;19921;-96
2023/05/15 09:51:47;;;;;;;;;;;;;;;17.72;40.88;101109.50;5000951;28;19932;-96
2023/05/15 09:54:16;;;;;;;;;;;;;;;17.61;43.57;101130.41;5047700;28;19928;-96
2023/05/15 09:56:46;;;;;;;;;;;;;;;18.74;41.62;101129.34;5023492;28;19995;-96
2023/05/15 09:59:20;;;;;;;;;;;;;;;17.87;41.61;101131.84;5028326;28;19905;-96
2023/05/15 10:01:47;;;;;;;;;;;;;;;17.48;41.95;101131.34;5062007;28;19968;-96
2023/05/15 10:04:12;;;;;;;;;;;;;;;17.60;43.67;101131.34;5028407;28;19936;-96
2023/05/15 10:06:39;;;;;;;;;;;;;;;16.76;46.20;101126.19;5030048;28;19921;-96
2023/05/15 10:09:07;;;;;;;;;;;;;;;16.62;46.34;101135.00;5072541;28;19932;-96
2023/05/15 10:11:38;;;;;;;;;;;;;;;16.32;45.32;101126.78;5026397;28;19921;-96
2023/05/15 10:14:07;;;;;;;;;;;;;;;16.76;45.74;101126.19;5031634;28;19920;-96
2023/05/15 10:16:36;;;;;;;;;;;;;;;16.79;46.10;101118.16;5067213;27;19923;-96
2023/05/15 10:19:21;;;;;;;;;;;;;;;16.90;45.88;101113.00;5028746;28;19921;-96
2023/05/15 10:21:50;;;;;;;;;;;;;;;17.93;41.52;101115.72;5063041;28;19917;-96
2023/05/15 10:24:18;;;;;;;;;;;;;;;18.43;42.35;101110.06;5048723;28;19921;-96
2023/05/15 10:26:46;;;;;;;;;;;;;;;19.58;40.58;101111.13;5039548;28;19921;-96
2023/05/15 10:29:17;;;;;;;;;;;;;;;18.89;39.89;101116.84;5034115;28;19905;-96
2023/05/15 10:31:43;;;;;;;;;;;;;;;18.60;40.11;101111.31;5056970;28;19924;-96
2023/05/15 10:34:09;;;;;;;;;;;;;;;17.86;41.58;101117.16;5023193;28;19925;-95
2023/05/15 10:36:35;;;;;;;;;;;;;;;17.15;42.32;101120.81;5021210;28;19929;-95
2023/05/15 10:39:01;;;;;;;;;;;;;;;16.68;44.68;101129.34;5023745;28;19917;-95
2023/05/15 10:41:31;;;;;;;;;;;;;;;16.05;44.65;101126.00;5023567;28;20011;-96
2023/05/15 10:43:59;;;;;;;;;;;;;;;15.68;44.26;101122.47;5021762;28;19917;-95
2023/05/15 10:46:25;;;;;;;;;;;;;;;16.60;43.28;101118.63;5015579;28;19925;-93
2023/05/15 10:48:51;;;;;;;;;;;;;;;18.22;41.26;101117.84;5015918;28;19928;-93
2023/05/15 10:51:16;;;;;;;;;;;;;;;18.95;39.62;101120.75;5026017;28;19925;-93
2023/05/15 10:53:42;;;;;;;;;;;;;;;19.04;40.67;101125.22;5035467;28;20370;-92
2023/05/15 10:56:12;;;;;;;;;;;;;;;18.92;39.19;101115.75;5024257;28;19921;-94
2023/05/15 10:58:37;;;;;;;;;;;;;;;19.44;39.22;101111.44;5041182;28;19928;-94
2023/05/15 11:01:02;;;;;;;;;;;;;;;20.68;38.26;101107.75;5044852;28;19921;-95
2023/05/15 11:03:35;;;;;;;;;;;;;;;20.95;37.35;101105.25;5044044;28;19976;-95
2023/05/15 11:06:11;;;;;;;;;;;;;;;21.40;35.97;101108.25;5034533;28;19921;-94
2023/05/15 11:08:37;;;;;;;;;;;;;;;19.85;36.87;101107.94;5024827;28;19952;-93
2023/05/15 11:11:02;;;;;;;;;;;;;;;19.54;37.42;101107.09;5047857;27;19921;-94
2023/05/15 11:13:47;;;;;;;;;;;;;;;18.74;39.17;101113.66;5055287;27;19930;-96
2023/05/15 11:16:35;;;;;;;;;;;;;;;18.76;40.56;101124.88;5041209;28;19917;-96
2023/05/15 11:19:00;;;;;;;;;;;;;;;18.37;39.06;101121.03;5054042;28;19921;-96
2023/05/15 11:21:31;;;;;;;;;;;;;;;18.46;40.01;101117.69;5031997;28;20301;-96
2023/05/15 11:24:02;;;;;;;;;;;;;;;19.40;38.57;101120.50;5030940;28;20390;-96
2023/05/15 11:26:33;;;;;;;;;;;;;;;20.36;36.67;101121.91;5021534;28;19928;-96
2023/05/15 11:29:16;;;;;;;;;;;;;;;20.82;37.82;101117.81;5022864;28;19925;-96
2023/05/15 11:31:41;;;;;;;;;;;;;;;20.84;36.46;101128.19;5021744;28;19924;-96
2023/05/15 11:34:06;;;;;;;;;;;;;;;19.23;37.00;101120.13;5020965;28;19917;-96
2023/05/15 11:36:32;;;;;;;;;;;;;;;18.88;37.76;101119.59;5018883;28;19924;-96
2023/05/15 11:38:58;;;;;;;;;;;;;;;20.23;35.83;101130.00;5024126;28;19917;-96
2023/05/15 11:41:30;;;;;;;;;;;;;;;20.83;36.50;101118.66;5022512;28;19917;-96
2023/05/15 11:43:56;;;;;;;;;;;;;;;21.24;36.42;101120.16;5027073;28;19917;-96
2023/05/15 11:46:21;;;;;;;;;;;;;;;20.59;36.11;101109.41;5026117;28;19917;-96
2023/05/15 11:48:47;;;;;;;;;;;;;;;20.69;35.98;101112.84;5026498;28;19917;-96
2023/05/15 11:51:17;;;;;;;;;;;;;;;20.73;34.27;101106.38;5021205;28;20362;-96
2023/05/15 11:53:42;;;;;;;;;;;;;;;21.69;35.29;101111.59;5021635;28;19917;-96
2023/05/15 11:56:11;;;;;;;;;;;;;;;21.51;35.01;101115.97;5025394;28;20588;-96
2023/05/15 11:58:37;;;;;;;;;;;;;;;22.04;35.95;101115.31;5025174;28;19978;-96
2023/05/15 12:01:02;;;;;;;;;;;;;;;21.50;37.30;101114.31;5024071;28;20016;-96
2023/05/15 12:03:32;;;;;;;;;;;;;;;21.15;36.15;101119.19;5023246;28;19928;-96
2023/05/15 12:06:00;;;;;;;;;;;;;;;20.87;36.89;101126.13;5029049;28;19925;-96
2023/05/15 12:08:30;;;;;;;;;;;;;;;20.39;38.12;101128.66;5026019;28;19917;-96
2023/05/15 12:10:57;;;;;;;;;;;;;;;20.47;38.98;101132.25;5022767;28;19971;-96
2023/05/15 12:13:23;;;;;;;;;;;;;;;20.09;38.00;101128.59;5022299;28;20259;-96
2023/05/15 12:15:48;;;;;;;;;;;;;;;21.27;36.48;101121.66;5022172;28;20140;-96
2023/05/15 12:18:14;;;;;;;;;;;;;;;21.84;33.22;101122.47;5025320;28;19917;-96
2023/05/15 12:20:43;;;;;;;;;;;;;;;20.90;36.26;101117.16;5024109;28;19917;-96
2023/05/15 12:23:11;;;;;;;;;;;;;;;22.06;35.70;101129.16;5022838;28;19917;-96
2023/05/15 12:25:36;;;;;;;;;;;;;;;21.99;33.19;101130.69;5026154;28;19921;-96
2023/05/15 12:28:04;;;;;;;;;;;;;;;22.61;33.15;101120.41;5040697;28;20001;-96
2023/05/15 12:30:30;;;;;;;;;;;;;;;21.80;34.39;101111.44;5023789;28;19923;-96
2023/05/15 12:33:06;;;;;;;;;;;;;;;21.22;34.33;101124.69;5027626;28;19947;-96